sensor_id;sensor_type;location;lat;lon;timestamp;temperature;humidity
15937;DHT22;9163;48.818;8.976;2022-11-11T00:00:59;5.30;99.90
15937;DHT22;9163;48.818;8.976;2022-11-11T00:03:27;5.30;99.90
15937;DHT22;9163;48.818;8.976;2022-11-11T00:05:58;5.30;99.90
15937;DHT22;9163;48.818;8.976;2022-11-11T00:08:26;5.20;99.90
15937;DHT22;9163;48.818;8.976;2022-11-11T00:10:59;5.20;99.90
15937;DHT22;9163;48.818;8.976;2022-11-11T00:13:28;5.30;99.90
15937;DHT22;9163;48.818;8.976;2022-11-11T00:15:56;5.30;99.90
15937;DHT22;9163;48.818;8.976;2022-11-11T00:18:29;5.30;99.90
15937;DHT22;9163;48.818;8.976;2022-11-11T00:21:14;5.20;99.90
15937;DHT22;9163;48.818;8.976;2022-11-11T00:24:19;5.30;99.90
15937;DHT22;9163;48.818;8.976;2022-11-11T00:27:04;5.30;99.90
15937;DHT22;9163;48.818;8.976;2022-11-11T00:29:33;5.30;99.90
15937;DHT22;9163;48.818;8.976;2022-11-11T00:32:00;5.40;99.90
15937;DHT22;9163;48.818;8.976;2022-11-11T00:34:45;5.30;99.90
15937;DHT22;9163;48.818;8.976;2022-11-11T00:37:26;5.30;99.90
15937;DHT22;9163;48.818;8.976;2022-11-11T00:39:53;5.20;99.90
15937;DHT22;9163;48.818;8.976;2022-11-11T00:42:20;5.10;99.90
15937;DHT22;9163;48.818;8.976;2022-11-11T00:44:49;5.10;99.90
15937;DHT22;9163;48.818;8.976;2022-11-11T00:47:16;5.10;99.90
15937;DHT22;9163;48.818;8.976;2022-11-11T00:50:01;5.20;99.90
15937;DHT22;9163;48.818;8.976;2022-11-11T00:52:46;5.30;99.90
15937;DHT22;9163;48.818;8.976;2022-11-11T00:55:14;5.40;99.90
15937;DHT22;9163;48.818;8.976;2022-11-11T00:57:41;5.30;99.90
15937;DHT22;9163;48.818;8.976;2022-11-11T01:00:11;5.30;99.90
15937;DHT22;9163;48.818;8.976;2022-11-11T01:02:39;5.30;99.90
15937;DHT22;9163;48.818;8.976;2022-11-11T01:05:07;5.20;99.90
15937;DHT22;9163;48.818;8.976;2022-11-11T01:07:34;5.20;99.90
15937;DHT22;9163;48.818;8.976;2022-11-11T01:10:02;5.20;99.90
15937;DHT22;9163;48.818;8.976;2022-11-11T01:12:29;5.30;99.90
15937;DHT22;9163;48.818;8.976;2022-11-11T01:14:56;5.30;99.90
15937;DHT22;9163;48.818;8.976;2022-11-11T01:17:25;5.20;99.90
15937;DHT22;9163;48.818;8.976;2022-11-11T01:19:52;5.20;99.90
15937;DHT22;9163;48.818;8.976;2022-11-11T01:22:20;5.20;99.90
15937;DHT22;9163;48.818;8.976;2022-11-11T01:24:47;5.20;99.90
15937;DHT22;9163;48.818;8.976;2022-11-11T01:27:14;5.20;99.90
15937;DHT22;9163;48.818;8.976;2022-11-11T01:29:41;5.30;99.90
15937;DHT22;9163;48.818;8.976;2022-11-11T01:32:09;5.30;99.90
15937;DHT22;9163;48.818;8.976;2022-11-11T01:34:37;5.30;99.90
15937;DHT22;9163;48.818;8.976;2022-11-11T01:37:05;5.30;99.90
15937;DHT22;9163;48.818;8.976;2022-11-11T01:39:32;5.30;99.90
15937;DHT22;9163;48.818;8.976;2022-11-11T01:41:59;5.10;99.90
15937;DHT22;9163;48.818;8.976;2022-11-11T01:44:47;5.00;99.90
15937;DHT22;9163;48.818;8.976;2022-11-11T01:47:16;4.90;99.90
15937;DHT22;9163;48.818;8.976;2022-11-11T01:49:49;4.80;99.90
15937;DHT22;9163;48.818;8.976;2022-11-11T01:52:20;4.70;99.90
15937;DHT22;9163;48.818;8.976;2022-11-11T01:54:51;4.60;99.90
15937;DHT22;9163;48.818;8.976;2022-11-11T01:57:23;4.50;99.90
15937;DHT22;9163;48.818;8.976;2022-11-11T01:59:55;4.50;99.90
15937;DHT22;9163;48.818;8.976;2022-11-11T02:02:30;4.50;99.90
15937;DHT22;9163;48.818;8.976;2022-11-11T02:05:00;4.60;99.90
15937;DHT22;9163;48.818;8.976;2022-11-11T02:07:47;4.70;99.90
15937;DHT22;9163;48.818;8.976;2022-11-11T02:10:17;4.70;99.90
15937;DHT22;9163;48.818;8.976;2022-11-11T02:12:45;4.80;99.90
15937;DHT22;9163;48.818;8.976;2022-11-11T02:15:30;4.80;99.90
15937;DHT22;9163;48.818;8.976;2022-11-11T02:17:57;4.90;99.90
15937;DHT22;9163;48.818;8.976;2022-11-11T02:20:28;5.00;99.90
15937;DHT22;9163;48.818;8.976;2022-11-11T02:23:02;5.00;99.90
15937;DHT22;9163;48.818;8.976;2022-11-11T02:25:33;5.00;99.90
15937;DHT22;9163;48.818;8.976;2022-11-11T02:28:04;5.10;99.90
15937;DHT22;9163;48.818;8.976;2022-11-11T02:30:32;5.10;99.90
15937;DHT22;9163;48.818;8.976;2022-11-11T02:33:00;5.10;99.90
15937;DHT22;9163;48.818;8.976;2022-11-11T02:35:31;5.00;99.90
15937;DHT22;9163;48.818;8.976;2022-11-11T02:37:59;4.90;99.90
15937;DHT22;9163;48.818;8.976;2022-11-11T02:40:36;4.80;99.90
15937;DHT22;9163;48.818;8.976;2022-11-11T02:43:04;4.60;99.90
15937;DHT22;9163;48.818;8.976;2022-11-11T02:45:30;4.50;99.90
15937;DHT22;9163;48.818;8.976;2022-11-11T02:47:58;4.40;99.90
15937;DHT22;9163;48.818;8.976;2022-11-11T02:50:25;4.30;99.90
15937;DHT22;9163;48.818;8.976;2022-11-11T02:52:52;4.40;99.90
15937;DHT22;9163;48.818;8.976;2022-11-11T02:55:19;4.60;99.90
15937;DHT22;9163;48.818;8.976;2022-11-11T02:57:48;4.60;99.90
15937;DHT22;9163;48.818;8.976;2022-11-11T03:00:16;4.70;99.90
15937;DHT22;9163;48.818;8.976;2022-11-11T03:02:44;4.80;99.90
15937;DHT22;9163;48.818;8.976;2022-11-11T03:05:11;4.70;99.90
15937;DHT22;9163;48.818;8.976;2022-11-11T03:07:38;4.70;99.90
15937;DHT22;9163;48.818;8.976;2022-11-11T03:10:06;4.70;99.90
15937;DHT22;9163;48.818;8.976;2022-11-11T03:12:34;4.80;99.90
15937;DHT22;9163;48.818;8.976;2022-11-11T03:15:03;4.80;99.90
15937;DHT22;9163;48.818;8.976;2022-11-11T03:17:30;4.80;99.90
15937;DHT22;9163;48.818;8.976;2022-11-11T03:20:07;4.80;99.90
15937;DHT22;9163;48.818;8.976;2022-11-11T03:23:00;4.90;99.90
15937;DHT22;9163;48.818;8.976;2022-11-11T03:25:27;4.80;99.90
15937;DHT22;9163;48.818;8.976;2022-11-11T03:28:07;4.80;99.90
15937;DHT22;9163;48.818;8.976;2022-11-11T03:30:37;4.80;99.90
15937;DHT22;9163;48.818;8.976;2022-11-11T03:33:05;4.60;99.90
15937;DHT22;9163;48.818;8.976;2022-11-11T03:35:33;4.50;99.90
15937;DHT22;9163;48.818;8.976;2022-11-11T03:38:01;4.40;99.90
15937;DHT22;9163;48.818;8.976;2022-11-11T03:40:47;4.40;99.90
15937;DHT22;9163;48.818;8.976;2022-11-11T03:43:15;4.30;99.90
15937;DHT22;9163;48.818;8.976;2022-11-11T03:45:44;4.20;99.90
15937;DHT22;9163;48.818;8.976;2022-11-11T03:48:12;4.20;99.90
15937;DHT22;9163;48.818;8.976;2022-11-11T03:50:40;4.10;99.90
15937;DHT22;9163;48.818;8.976;2022-11-11T03:53:07;4.10;99.90
15937;DHT22;9163;48.818;8.976;2022-11-11T03:55:35;4.10;99.90
15937;DHT22;9163;48.818;8.976;2022-11-11T03:58:02;4.10;99.90
15937;DHT22;9163;48.818;8.976;2022-11-11T04:00:29;4.10;99.90
15937;DHT22;9163;48.818;8.976;2022-11-11T04:03:06;4.10;99.90
15937;DHT22;9163;48.818;8.976;2022-11-11T04:05:52;4.20;99.90
15937;DHT22;9163;48.818;8.976;2022-11-11T04:08:41;4.20;99.90
15937;DHT22;9163;48.818;8.976;2022-11-11T04:11:28;4.20;99.90
15937;DHT22;9163;48.818;8.976;2022-11-11T04:13:58;4.20;99.90
15937;DHT22;9163;48.818;8.976;2022-11-11T04:16:43;4.20;99.90
15937;DHT22;9163;48.818;8.976;2022-11-11T04:19:12;4.20;99.90
15937;DHT22;9163;48.818;8.976;2022-11-11T04:21:57;4.20;99.90
15937;DHT22;9163;48.818;8.976;2022-11-11T04:24:24;4.20;99.90
15937;DHT22;9163;48.818;8.976;2022-11-11T04:27:10;4.10;99.90
15937;DHT22;9163;48.818;8.976;2022-11-11T04:29:38;4.20;99.90
15937;DHT22;9163;48.818;8.976;2022-11-11T04:32:05;4.10;99.90
15937;DHT22;9163;48.818;8.976;2022-11-11T04:34:53;4.10;99.90
15937;DHT22;9163;48.818;8.976;2022-11-11T04:37:22;4.20;99.90
15937;DHT22;9163;48.818;8.976;2022-11-11T04:39:50;4.30;99.90
15937;DHT22;9163;48.818;8.976;2022-11-11T04:42:36;4.30;99.90
15937;DHT22;9163;48.818;8.976;2022-11-11T04:45:04;4.30;99.90
15937;DHT22;9163;48.818;8.976;2022-11-11T04:47:54;4.30;99.90
15937;DHT22;9163;48.818;8.976;2022-11-11T04:50:24;4.30;99.90
15937;DHT22;9163;48.818;8.976;2022-11-11T04:52:52;4.30;99.90
15937;DHT22;9163;48.818;8.976;2022-11-11T04:55:20;4.30;99.90
15937;DHT22;9163;48.818;8.976;2022-11-11T04:58:04;4.20;99.90
15937;DHT22;9163;48.818;8.976;2022-11-11T05:00:32;4.20;99.90
15937;DHT22;9163;48.818;8.976;2022-11-11T05:03:00;4.20;99.90
15937;DHT22;9163;48.818;8.976;2022-11-11T05:05:45;4.20;99.90
15937;DHT22;9163;48.818;8.976;2022-11-11T05:08:30;4.10;99.90
15937;DHT22;9163;48.818;8.976;2022-11-11T05:11:15;4.10;99.90
15937;DHT22;9163;48.818;8.976;2022-11-11T05:13:43;4.10;99.90
15937;DHT22;9163;48.818;8.976;2022-11-11T05:16:30;4.10;99.90
15937;DHT22;9163;48.818;8.976;2022-11-11T05:19:16;4.10;99.90
15937;DHT22;9163;48.818;8.976;2022-11-11T05:22:07;4.10;99.90
15937;DHT22;9163;48.818;8.976;2022-11-11T05:24:36;4.10;99.90
15937;DHT22;9163;48.818;8.976;2022-11-11T05:27:21;4.10;99.90
15937;DHT22;9163;48.818;8.976;2022-11-11T05:29:48;4.10;99.90
15937;DHT22;9163;48.818;8.976;2022-11-11T05:32:16;4.00;99.90
15937;DHT22;9163;48.818;8.976;2022-11-11T05:34:44;4.00;99.90
15937;DHT22;9163;48.818;8.976;2022-11-11T05:37:14;4.00;99.90
15937;DHT22;9163;48.818;8.976;2022-11-11T05:39:41;4.00;99.90
15937;DHT22;9163;48.818;8.976;2022-11-11T05:42:09;4.00;99.90
15937;DHT22;9163;48.818;8.976;2022-11-11T05:44:37;4.00;99.90
15937;DHT22;9163;48.818;8.976;2022-11-11T05:47:04;4.00;99.90
15937;DHT22;9163;48.818;8.976;2022-11-11T05:49:32;4.00;99.90
15937;DHT22;9163;48.818;8.976;2022-11-11T05:52:00;3.90;99.90
15937;DHT22;9163;48.818;8.976;2022-11-11T05:54:29;3.90;99.90
15937;DHT22;9163;48.818;8.976;2022-11-11T05:56:56;3.90;99.90
15937;DHT22;9163;48.818;8.976;2022-11-11T05:59:23;3.90;99.90
15937;DHT22;9163;48.818;8.976;2022-11-11T06:01:51;3.90;99.90
15937;DHT22;9163;48.818;8.976;2022-11-11T06:04:18;4.00;99.90
15937;DHT22;9163;48.818;8.976;2022-11-11T06:06:45;3.90;99.90
15937;DHT22;9163;48.818;8.976;2022-11-11T06:09:13;4.00;99.90
15937;DHT22;9163;48.818;8.976;2022-11-11T06:11:41;4.00;99.90
15937;DHT22;9163;48.818;8.976;2022-11-11T06:14:09;4.00;99.90
15937;DHT22;9163;48.818;8.976;2022-11-11T06:16:36;4.00;99.90
15937;DHT22;9163;48.818;8.976;2022-11-11T06:19:03;4.00;99.90
15937;DHT22;9163;48.818;8.976;2022-11-11T06:21:31;3.90;99.90
15937;DHT22;9163;48.818;8.976;2022-11-11T06:24:18;3.90;99.90
15937;DHT22;9163;48.818;8.976;2022-11-11T06:26:47;3.90;99.90
15937;DHT22;9163;48.818;8.976;2022-11-11T06:29:14;3.90;99.90
15937;DHT22;9163;48.818;8.976;2022-11-11T06:31:42;3.80;99.90
15937;DHT22;9163;48.818;8.976;2022-11-11T06:34:10;3.80;99.90
15937;DHT22;9163;48.818;8.976;2022-11-11T06:36:37;3.90;99.90
15937;DHT22;9163;48.818;8.976;2022-11-11T06:39:05;3.90;99.90
15937;DHT22;9163;48.818;8.976;2022-11-11T06:41:32;3.90;99.90
15937;DHT22;9163;48.818;8.976;2022-11-11T06:44:00;4.00;99.90
15937;DHT22;9163;48.818;8.976;2022-11-11T06:46:28;4.00;99.90
15937;DHT22;9163;48.818;8.976;2022-11-11T06:48:55;4.00;99.90
15937;DHT22;9163;48.818;8.976;2022-11-11T06:51:22;4.10;99.90
15937;DHT22;9163;48.818;8.976;2022-11-11T06:53:50;4.00;99.90
15937;DHT22;9163;48.818;8.976;2022-11-11T06:56:17;4.20;99.90
15937;DHT22;9163;48.818;8.976;2022-11-11T06:58:45;4.20;99.90
15937;DHT22;9163;48.818;8.976;2022-11-11T07:01:13;4.30;99.90
15937;DHT22;9163;48.818;8.976;2022-11-11T07:03:41;4.30;99.90
15937;DHT22;9163;48.818;8.976;2022-11-11T07:06:08;4.40;99.90
15937;DHT22;9163;48.818;8.976;2022-11-11T07:08:35;4.40;99.90
15937;DHT22;9163;48.818;8.976;2022-11-11T07:11:03;4.50;99.90
15937;DHT22;9163;48.818;8.976;2022-11-11T07:13:30;4.60;99.90
15937;DHT22;9163;48.818;8.976;2022-11-11T07:15:57;4.70;99.90
15937;DHT22;9163;48.818;8.976;2022-11-11T07:18:26;4.80;99.90
15937;DHT22;9163;48.818;8.976;2022-11-11T07:20:53;4.80;99.90
15937;DHT22;9163;48.818;8.976;2022-11-11T07:23:21;4.80;99.90
15937;DHT22;9163;48.818;8.976;2022-11-11T07:25:48;4.90;99.90
15937;DHT22;9163;48.818;8.976;2022-11-11T07:28:15;5.00;99.90
15937;DHT22;9163;48.818;8.976;2022-11-11T07:30:42;5.00;99.90
15937;DHT22;9163;48.818;8.976;2022-11-11T07:33:10;5.00;99.90
15937;DHT22;9163;48.818;8.976;2022-11-11T07:35:38;5.10;99.90
15937;DHT22;9163;48.818;8.976;2022-11-11T07:38:06;5.30;99.90
15937;DHT22;9163;48.818;8.976;2022-11-11T07:40:33;5.40;99.90
15937;DHT22;9163;48.818;8.976;2022-11-11T07:43:00;5.50;99.90
15937;DHT22;9163;48.818;8.976;2022-11-11T07:45:27;5.60;99.90
15937;DHT22;9163;48.818;8.976;2022-11-11T07:47:55;5.70;99.90
15937;DHT22;9163;48.818;8.976;2022-11-11T07:50:22;5.80;99.90
15937;DHT22;9163;48.818;8.976;2022-11-11T07:52:51;5.80;99.90
15937;DHT22;9163;48.818;8.976;2022-11-11T07:55:18;5.90;99.90
15937;DHT22;9163;48.818;8.976;2022-11-11T07:57:45;6.00;99.90
15937;DHT22;9163;48.818;8.976;2022-11-11T08:00:13;6.20;99.90
15937;DHT22;9163;48.818;8.976;2022-11-11T08:02:45;6.30;99.90
15937;DHT22;9163;48.818;8.976;2022-11-11T08:05:13;6.40;99.90
15937;DHT22;9163;48.818;8.976;2022-11-11T08:07:40;6.50;99.90
15937;DHT22;9163;48.818;8.976;2022-11-11T08:10:10;6.60;99.90
15937;DHT22;9163;48.818;8.976;2022-11-11T08:12:37;6.70;99.90
15937;DHT22;9163;48.818;8.976;2022-11-11T08:15:22;6.90;99.90
15937;DHT22;9163;48.818;8.976;2022-11-11T08:17:49;7.10;99.90
15937;DHT22;9163;48.818;8.976;2022-11-11T08:20:17;7.30;99.90
15937;DHT22;9163;48.818;8.976;2022-11-11T08:22:44;7.50;99.90
15937;DHT22;9163;48.818;8.976;2022-11-11T08:25:13;7.80;99.90
15937;DHT22;9163;48.818;8.976;2022-11-11T08:27:40;8.10;99.90
15937;DHT22;9163;48.818;8.976;2022-11-11T08:30:09;8.20;99.90
15937;DHT22;9163;48.818;8.976;2022-11-11T08:32:37;8.20;99.90
15937;DHT22;9163;48.818;8.976;2022-11-11T08:35:04;8.10;99.90
15937;DHT22;9163;48.818;8.976;2022-11-11T08:37:32;8.10;99.90
15937;DHT22;9163;48.818;8.976;2022-11-11T08:39:59;8.20;99.90
15937;DHT22;9163;48.818;8.976;2022-11-11T08:42:28;8.30;99.90
15937;DHT22;9163;48.818;8.976;2022-11-11T08:44:55;8.40;99.90
15937;DHT22;9163;48.818;8.976;2022-11-11T08:47:23;8.60;99.90
15937;DHT22;9163;48.818;8.976;2022-11-11T08:49:50;8.80;99.90
15937;DHT22;9163;48.818;8.976;2022-11-11T08:52:17;9.20;99.90
15937;DHT22;9163;48.818;8.976;2022-11-11T08:54:45;9.40;99.90
15937;DHT22;9163;48.818;8.976;2022-11-11T08:57:12;9.70;99.90
15937;DHT22;9163;48.818;8.976;2022-11-11T08:59:40;10.00;99.90
15937;DHT22;9163;48.818;8.976;2022-11-11T09:02:10;10.20;99.90
15937;DHT22;9163;48.818;8.976;2022-11-11T09:04:38;10.90;99.90
15937;DHT22;9163;48.818;8.976;2022-11-11T09:07:06;10.70;99.90
15937;DHT22;9163;48.818;8.976;2022-11-11T09:09:34;10.70;99.90
15937;DHT22;9163;48.818;8.976;2022-11-11T09:12:01;11.50;99.90
15937;DHT22;9163;48.818;8.976;2022-11-11T09:14:29;12.00;99.90
15937;DHT22;9163;48.818;8.976;2022-11-11T09:16:58;13.00;99.90
15937;DHT22;9163;48.818;8.976;2022-11-11T09:19:25;12.90;99.90
15937;DHT22;9163;48.818;8.976;2022-11-11T09:21:52;14.00;99.90
15937;DHT22;9163;48.818;8.976;2022-11-11T09:24:20;15.20;99.90
15937;DHT22;9163;48.818;8.976;2022-11-11T09:26:47;16.30;99.90
15937;DHT22;9163;48.818;8.976;2022-11-11T09:29:15;16.70;99.90
15937;DHT22;9163;48.818;8.976;2022-11-11T09:31:42;17.00;99.90
15937;DHT22;9163;48.818;8.976;2022-11-11T09:34:11;16.90;99.90
15937;DHT22;9163;48.818;8.976;2022-11-11T09:36:39;17.70;99.90
15937;DHT22;9163;48.818;8.976;2022-11-11T09:39:06;17.60;99.90
15937;DHT22;9163;48.818;8.976;2022-11-11T09:41:41;16.80;99.90
15937;DHT22;9163;48.818;8.976;2022-11-11T09:44:25;17.70;99.90
15937;DHT22;9163;48.818;8.976;2022-11-11T09:47:00;19.30;99.90
15937;DHT22;9163;48.818;8.976;2022-11-11T09:49:51;18.10;99.90
15937;DHT22;9163;48.818;8.976;2022-11-11T09:52:23;18.90;99.90
15937;DHT22;9163;48.818;8.976;2022-11-11T09:54:56;18.50;99.90
15937;DHT22;9163;48.818;8.976;2022-11-11T09:57:32;19.30;99.90
15937;DHT22;9163;48.818;8.976;2022-11-11T10:00:02;19.20;99.90
15937;DHT22;9163;48.818;8.976;2022-11-11T10:02:37;19.60;99.90
15937;DHT22;9163;48.818;8.976;2022-11-11T10:05:11;19.10;99.90
15937;DHT22;9163;48.818;8.976;2022-11-11T10:07:43;17.80;99.90
15937;DHT22;9163;48.818;8.976;2022-11-11T10:10:26;18.20;99.90
15937;DHT22;9163;48.818;8.976;2022-11-11T10:12:57;18.10;99.90
15937;DHT22;9163;48.818;8.976;2022-11-11T10:15:29;18.60;99.90
15937;DHT22;9163;48.818;8.976;2022-11-11T10:18:14;18.20;99.90
15937;DHT22;9163;48.818;8.976;2022-11-11T10:20:49;18.00;99.90
15937;DHT22;9163;48.818;8.976;2022-11-11T10:23:21;17.50;99.90
15937;DHT22;9163;48.818;8.976;2022-11-11T10:25:52;18.00;99.90
15937;DHT22;9163;48.818;8.976;2022-11-11T10:28:22;18.50;99.90
15937;DHT22;9163;48.818;8.976;2022-11-11T10:30:50;19.80;99.90
15937;DHT22;9163;48.818;8.976;2022-11-11T10:33:21;18.90;99.90
15937;DHT22;9163;48.818;8.976;2022-11-11T10:35:52;18.40;99.90
15937;DHT22;9163;48.818;8.976;2022-11-11T10:38:30;18.90;99.90
15937;DHT22;9163;48.818;8.976;2022-11-11T10:41:04;18.30;99.90
15937;DHT22;9163;48.818;8.976;2022-11-11T10:43:35;18.80;99.90
15937;DHT22;9163;48.818;8.976;2022-11-11T10:46:06;19.20;99.90
15937;DHT22;9163;48.818;8.976;2022-11-11T10:48:44;20.00;99.90
15937;DHT22;9163;48.818;8.976;2022-11-11T10:51:15;20.40;99.90
15937;DHT22;9163;48.818;8.976;2022-11-11T10:53:51;20.20;99.90
15937;DHT22;9163;48.818;8.976;2022-11-11T10:56:24;21.40;99.90
15937;DHT22;9163;48.818;8.976;2022-11-11T10:58:59;22.00;99.90
15937;DHT22;9163;48.818;8.976;2022-11-11T11:01:32;21.50;99.90
15937;DHT22;9163;48.818;8.976;2022-11-11T11:04:04;23.20;99.90
15937;DHT22;9163;48.818;8.976;2022-11-11T11:06:35;23.30;99.90
15937;DHT22;9163;48.818;8.976;2022-11-11T11:09:09;23.70;99.90
15937;DHT22;9163;48.818;8.976;2022-11-11T11:11:41;24.20;99.90
15937;DHT22;9163;48.818;8.976;2022-11-11T11:14:15;24.90;99.90
15937;DHT22;9163;48.818;8.976;2022-11-11T11:16:49;24.80;99.90
15937;DHT22;9163;48.818;8.976;2022-11-11T11:19:18;24.10;99.90
15937;DHT22;9163;48.818;8.976;2022-11-11T11:21:52;23.80;99.90
15937;DHT22;9163;48.818;8.976;2022-11-11T11:24:22;24.10;99.90
15937;DHT22;9163;48.818;8.976;2022-11-11T11:26:52;24.60;99.90
15937;DHT22;9163;48.818;8.976;2022-11-11T11:29:27;24.90;99.90
15937;DHT22;9163;48.818;8.976;2022-11-11T11:31:56;24.90;99.90
15937;DHT22;9163;48.818;8.976;2022-11-11T11:34:45;25.50;99.90
15937;DHT22;9163;48.818;8.976;2022-11-11T11:37:14;23.70;99.90
15937;DHT22;9163;48.818;8.976;2022-11-11T11:39:42;22.30;99.90
15937;DHT22;9163;48.818;8.976;2022-11-11T11:42:26;22.60;99.90
15937;DHT22;9163;48.818;8.976;2022-11-11T11:44:54;22.50;99.90
15937;DHT22;9163;48.818;8.976;2022-11-11T11:47:34;23.30;99.90
15937;DHT22;9163;48.818;8.976;2022-11-11T11:50:16;24.10;99.90
15937;DHT22;9163;48.818;8.976;2022-11-11T11:52:54;24.00;99.90
15937;DHT22;9163;48.818;8.976;2022-11-11T11:55:27;24.20;99.90
15937;DHT22;9163;48.818;8.976;2022-11-11T11:58:10;24.80;99.90
15937;DHT22;9163;48.818;8.976;2022-11-11T12:00:48;24.20;99.90
15937;DHT22;9163;48.818;8.976;2022-11-11T12:03:32;24.80;99.90
15937;DHT22;9163;48.818;8.976;2022-11-11T12:06:09;25.70;99.90
15937;DHT22;9163;48.818;8.976;2022-11-11T12:08:52;27.00;99.30
15937;DHT22;9163;48.818;8.976;2022-11-11T12:11:30;26.70;98.30
15937;DHT22;9163;48.818;8.976;2022-11-11T12:14:16;27.60;97.00
15937;DHT22;9163;48.818;8.976;2022-11-11T12:16:52;27.40;96.00
15937;DHT22;9163;48.818;8.976;2022-11-11T12:19:40;28.20;95.40
15937;DHT22;9163;48.818;8.976;2022-11-11T12:22:24;29.40;92.30
15937;DHT22;9163;48.818;8.976;2022-11-11T12:25:04;29.40;91.70
15937;DHT22;9163;48.818;8.976;2022-11-11T12:27:46;29.10;91.00
15937;DHT22;9163;48.818;8.976;2022-11-11T12:30:18;29.00;90.10
15937;DHT22;9163;48.818;8.976;2022-11-11T12:33:01;28.60;86.40
15937;DHT22;9163;48.818;8.976;2022-11-11T12:35:52;28.70;85.20
15937;DHT22;9163;48.818;8.976;2022-11-11T12:38:42;29.10;86.80
15937;DHT22;9163;48.818;8.976;2022-11-11T12:41:24;29.70;85.80
15937;DHT22;9163;48.818;8.976;2022-11-11T12:43:59;29.40;84.50
15937;DHT22;9163;48.818;8.976;2022-11-11T12:46:38;29.40;81.70
15937;DHT22;9163;48.818;8.976;2022-11-11T12:49:29;29.00;81.80
15937;DHT22;9163;48.818;8.976;2022-11-11T12:52:07;28.60;83.50
15937;DHT22;9163;48.818;8.976;2022-11-11T12:54:51;27.70;83.10
15937;DHT22;9163;48.818;8.976;2022-11-11T12:57:27;26.90;80.20
15937;DHT22;9163;48.818;8.976;2022-11-11T13:00:03;25.80;82.20
15937;DHT22;9163;48.818;8.976;2022-11-11T13:02:47;25.50;86.00
15937;DHT22;9163;48.818;8.976;2022-11-11T13:05:23;25.70;92.50
15937;DHT22;9163;48.818;8.976;2022-11-11T13:08:19;26.30;94.70
15937;DHT22;9163;48.818;8.976;2022-11-11T13:10:57;26.30;94.60
15937;DHT22;9163;48.818;8.976;2022-11-11T13:13:38;27.70;93.70
15937;DHT22;9163;48.818;8.976;2022-11-11T13:16:08;28.70;92.30
15937;DHT22;9163;48.818;8.976;2022-11-11T13:18:42;29.30;90.40
15937;DHT22;9163;48.818;8.976;2022-11-11T13:21:14;28.90;90.40
15937;DHT22;9163;48.818;8.976;2022-11-11T13:23:43;27.60;91.60
15937;DHT22;9163;48.818;8.976;2022-11-11T13:26:26;26.40;93.50
15937;DHT22;9163;48.818;8.976;2022-11-11T13:29:06;25.40;95.10
15937;DHT22;9163;48.818;8.976;2022-11-11T13:31:40;24.60;96.30
15937;DHT22;9163;48.818;8.976;2022-11-11T13:34:10;23.80;97.60
15937;DHT22;9163;48.818;8.976;2022-11-11T13:36:44;23.50;98.70
15937;DHT22;9163;48.818;8.976;2022-11-11T13:39:24;23.00;99.50
15937;DHT22;9163;48.818;8.976;2022-11-11T13:41:54;22.80;99.90
15937;DHT22;9163;48.818;8.976;2022-11-11T13:44:27;23.50;99.90
15937;DHT22;9163;48.818;8.976;2022-11-11T13:47:01;24.90;99.10
15937;DHT22;9163;48.818;8.976;2022-11-11T13:49:33;26.30;96.10
15937;DHT22;9163;48.818;8.976;2022-11-11T13:52:03;27.10;95.00
15937;DHT22;9163;48.818;8.976;2022-11-11T13:54:33;27.50;94.00
15937;DHT22;9163;48.818;8.976;2022-11-11T13:57:04;27.10;94.20
15937;DHT22;9163;48.818;8.976;2022-11-11T13:59:37;26.40;95.10
15937;DHT22;9163;48.818;8.976;2022-11-11T14:02:27;25.80;96.30
15937;DHT22;9163;48.818;8.976;2022-11-11T14:05:20;25.30;97.10
15937;DHT22;9163;48.818;8.976;2022-11-11T14:07:53;24.90;97.50
15937;DHT22;9163;48.818;8.976;2022-11-11T14:10:47;24.50;97.90
15937;DHT22;9163;48.818;8.976;2022-11-11T14:13:38;24.10;98.80
15937;DHT22;9163;48.818;8.976;2022-11-11T14:19:28;23.80;99.90
15937;DHT22;9163;48.818;8.976;2022-11-11T14:21:58;23.80;99.10
15937;DHT22;9163;48.818;8.976;2022-11-11T14:24:34;24.40;98.20
15937;DHT22;9163;48.818;8.976;2022-11-11T14:27:03;25.00;96.90
15937;DHT22;9163;48.818;8.976;2022-11-11T14:29:48;25.50;97.00
15937;DHT22;9163;48.818;8.976;2022-11-11T14:32:35;25.80;96.00
15937;DHT22;9163;48.818;8.976;2022-11-11T14:35:18;26.10;96.10
15937;DHT22;9163;48.818;8.976;2022-11-11T14:38:20;25.60;96.50
15937;DHT22;9163;48.818;8.976;2022-11-11T14:40:49;24.70;97.20
15937;DHT22;9163;48.818;8.976;2022-11-11T14:43:37;24.30;98.10
15937;DHT22;9163;48.818;8.976;2022-11-11T14:46:09;23.90;99.30
15937;DHT22;9163;48.818;8.976;2022-11-11T14:49:00;23.40;99.90
15937;DHT22;9163;48.818;8.976;2022-11-11T14:51:52;23.00;99.90
15937;DHT22;9163;48.818;8.976;2022-11-11T14:54:45;22.70;99.90
15937;DHT22;9163;48.818;8.976;2022-11-11T14:57:23;22.30;99.90
15937;DHT22;9163;48.818;8.976;2022-11-11T14:59:54;21.90;99.90
15937;DHT22;9163;48.818;8.976;2022-11-11T15:02:26;21.70;99.90
15937;DHT22;9163;48.818;8.976;2022-11-11T15:04:59;21.40;99.90
15937;DHT22;9163;48.818;8.976;2022-11-11T15:07:33;21.10;99.90
15937;DHT22;9163;48.818;8.976;2022-11-11T15:10:14;20.60;99.90
15937;DHT22;9163;48.818;8.976;2022-11-11T15:13:04;20.00;99.90
15937;DHT22;9163;48.818;8.976;2022-11-11T15:15:41;19.40;99.90
15937;DHT22;9163;48.818;8.976;2022-11-11T15:18:28;18.70;99.90
15937;DHT22;9163;48.818;8.976;2022-11-11T15:21:06;18.10;99.90
15937;DHT22;9163;48.818;8.976;2022-11-11T15:23:39;17.30;99.90
15937;DHT22;9163;48.818;8.976;2022-11-11T15:26:16;16.70;99.90
15937;DHT22;9163;48.818;8.976;2022-11-11T15:29:05;16.30;99.90
15937;DHT22;9163;48.818;8.976;2022-11-11T15:31:41;15.90;99.90
15937;DHT22;9163;48.818;8.976;2022-11-11T15:34:22;15.60;99.90
15937;DHT22;9163;48.818;8.976;2022-11-11T15:36:54;15.20;99.90
15937;DHT22;9163;48.818;8.976;2022-11-11T15:39:25;14.80;99.90
15937;DHT22;9163;48.818;8.976;2022-11-11T15:41:53;14.40;99.90
15937;DHT22;9163;48.818;8.976;2022-11-11T15:44:22;14.10;99.90
15937;DHT22;9163;48.818;8.976;2022-11-11T15:46:51;13.70;99.90
15937;DHT22;9163;48.818;8.976;2022-11-11T15:49:38;13.40;99.90
15937;DHT22;9163;48.818;8.976;2022-11-11T15:52:24;13.00;99.90
15937;DHT22;9163;48.818;8.976;2022-11-11T15:54:52;12.70;99.90
15937;DHT22;9163;48.818;8.976;2022-11-11T15:57:24;12.60;99.90
15937;DHT22;9163;48.818;8.976;2022-11-11T15:59:52;12.40;99.90
15937;DHT22;9163;48.818;8.976;2022-11-11T16:02:21;12.20;99.90
15937;DHT22;9163;48.818;8.976;2022-11-11T16:04:52;12.00;99.90
15937;DHT22;9163;48.818;8.976;2022-11-11T16:07:23;11.80;99.90
15937;DHT22;9163;48.818;8.976;2022-11-11T16:09:51;11.70;99.90
15937;DHT22;9163;48.818;8.976;2022-11-11T16:12:23;11.60;99.90
15937;DHT22;9163;48.818;8.976;2022-11-11T16:14:53;11.50;99.90
15937;DHT22;9163;48.818;8.976;2022-11-11T16:17:27;11.40;99.90
15937;DHT22;9163;48.818;8.976;2022-11-11T16:19:55;11.40;99.90
15937;DHT22;9163;48.818;8.976;2022-11-11T16:22:27;11.30;99.90
15937;DHT22;9163;48.818;8.976;2022-11-11T16:24:55;11.30;99.90
15937;DHT22;9163;48.818;8.976;2022-11-11T16:27:26;11.20;99.90
15937;DHT22;9163;48.818;8.976;2022-11-11T16:29:54;11.10;99.90
15937;DHT22;9163;48.818;8.976;2022-11-11T16:32:32;11.00;99.90
15937;DHT22;9163;48.818;8.976;2022-11-11T16:35:00;10.90;99.90